createdAt,value
2022-08-18T00:01:19.363Z,24.40
2022-08-18T00:03:56.580Z,24.26
2022-08-18T00:06:33.351Z,24.29
2022-08-18T00:09:05.976Z,24.30
2022-08-18T00:11:41.113Z,24.26
2022-08-18T00:14:22.739Z,24.21
2022-08-18T00:16:53.050Z,24.34
2022-08-18T00:19:45.408Z,24.35
2022-08-18T00:22:14.953Z,24.42
2022-08-18T00:24:51.703Z,24.37
2022-08-18T00:27:31.303Z,24.43
2022-08-18T00:32:39.826Z,24.41
2022-08-18T00:35:29.014Z,24.54
2022-08-18T00:38:01.030Z,24.42
2022-08-18T00:40:42.018Z,24.38
2022-08-18T00:43:22.001Z,24.26
2022-08-18T00:45:49.599Z,24.17
2022-08-18T00:48:18.950Z,24.35
2022-08-18T00:50:58.931Z,24.31
2022-08-18T00:53:35.994Z,24.37
2022-08-18T00:56:17.164Z,24.38
2022-08-18T00:58:57.976Z,24.37
2022-08-18T01:01:29.844Z,24.38
2022-08-18T01:04:06.737Z,24.42
2022-08-18T01:06:51.927Z,24.38
2022-08-18T01:09:19.270Z,24.30
2022-08-18T01:11:48.499Z,24.18
2022-08-18T01:14:19.005Z,24.18
2022-08-18T01:17:09.200Z,24.09
2022-08-18T01:19:55.459Z,24.46
2022-08-18T01:22:40.898Z,24.33
2022-08-18T01:25:27.553Z,24.11
2022-08-18T01:27:57.119Z,24.16
2022-08-18T01:30:32.026Z,24.20
2022-08-18T01:33:05.906Z,24.24
2022-08-18T01:35:41.650Z,24.21
2022-08-18T01:38:08.937Z,24.09
2022-08-18T01:41:21.150Z,24.15
2022-08-18T01:43:25.173Z,24.16
2022-08-18T01:45:54.323Z,24.01
2022-08-18T01:48:25.618Z,24.14
2022-08-18T01:50:55.364Z,24.19
2022-08-18T01:53:24.454Z,24.29
2022-08-18T01:55:53.658Z,24.31
2022-08-18T01:58:31.457Z,24.34
2022-08-18T02:01:01.942Z,24.21
2022-08-18T02:03:35.985Z,24.14
2022-08-18T02:06:07.443Z,24.19
2022-08-18T02:08:35.391Z,24.04
2022-08-18T02:11:03.426Z,24.01
2022-08-18T02:13:30.895Z,23.78
2022-08-18T02:16:00.962Z,23.80
2022-08-18T02:18:47.810Z,23.61
2022-08-18T02:21:19.899Z,23.53
2022-08-18T02:23:53.535Z,23.37
2022-08-18T02:26:23.285Z,23.37
2022-08-18T02:28:50.290Z,23.44
2022-08-18T02:31:23.357Z,23.46
2022-08-18T02:33:52.534Z,23.37
2022-08-18T02:36:23.815Z,23.22
2022-08-18T02:38:59.457Z,23.35
2022-08-18T02:41:30.212Z,23.36
2022-08-18T02:44:01.805Z,23.41
2022-08-18T02:46:31.453Z,23.29
2022-08-18T02:49:02.552Z,23.31
2022-08-18T02:51:32.158Z,23.27
2022-08-18T02:53:59.675Z,23.23
2022-08-18T02:56:40.960Z,23.23
2022-08-18T02:59:16.001Z,23.22
2022-08-18T03:01:47.755Z,23.31
2022-08-18T03:04:22.047Z,23.23
2022-08-18T03:06:54.976Z,23.23
2022-08-18T03:09:24.646Z,23.30
2022-08-18T03:11:56.233Z,23.13
2022-08-18T03:14:23.115Z,22.86
2022-08-18T03:16:54.412Z,23.06
2022-08-18T03:19:31.908Z,22.87
2022-08-18T03:22:03.219Z,23.02
2022-08-18T03:24:36.225Z,22.94
2022-08-18T03:27:06.936Z,23.01
2022-08-18T03:29:35.782Z,22.99
2022-08-18T03:32:07.736Z,22.96
2022-08-18T03:34:35.437Z,23.02
2022-08-18T03:37:02.276Z,22.96
2022-08-18T03:39:29.566Z,23.00
2022-08-18T03:42:01.143Z,22.93
2022-08-18T03:44:36.998Z,22.90
2022-08-18T03:47:09.758Z,22.86
2022-08-18T03:49:39.504Z,22.82
2022-08-18T03:52:09.892Z,22.79
2022-08-18T03:54:38.890Z,22.70
2022-08-18T03:57:09.427Z,22.73
2022-08-18T03:59:41.560Z,22.66
2022-08-18T04:02:08.434Z,22.54
2022-08-18T04:04:38.022Z,22.47
2022-08-18T04:07:14.283Z,22.30
2022-08-18T04:09:43.356Z,22.35
2022-08-18T04:12:16.654Z,22.40
2022-08-18T04:14:49.408Z,22.31
2022-08-18T04:17:25.128Z,22.42
2022-08-18T04:19:56.683Z,22.25
2022-08-18T04:22:25.270Z,22.25
2022-08-18T04:24:55.728Z,22.16
2022-08-18T04:27:31.177Z,22.22
2022-08-18T04:30:03.380Z,22.24
2022-08-18T04:32:31.360Z,22.42
2022-08-18T04:35:04.186Z,22.37
2022-08-18T04:37:39.615Z,22.36
2022-08-18T04:40:14.505Z,22.26
2022-08-18T04:42:45.070Z,22.34
2022-08-18T04:45:13.161Z,22.33
2022-08-18T04:47:43.512Z,22.49
2022-08-18T04:50:17.760Z,22.51
2022-08-18T04:53:02.914Z,22.64
2022-08-18T04:55:31.222Z,22.83
2022-08-18T04:58:00.619Z,22.83
2022-08-18T05:00:27.594Z,23.01
2022-08-18T05:02:58.152Z,23.08
2022-08-18T05:05:25.044Z,23.14
2022-08-18T05:07:52.018Z,23.35
2022-08-18T05:10:22.402Z,23.41
2022-08-18T05:12:49.545Z,23.33
2022-08-18T05:15:19.128Z,23.57
2022-08-18T05:17:47.639Z,23.68
2022-08-18T05:20:20.536Z,23.69
2022-08-18T05:22:48.170Z,23.64
2022-08-18T05:25:16.151Z,23.72
2022-08-18T05:27:44.033Z,23.73
2022-08-18T05:30:11.826Z,23.94
2022-08-18T05:32:50.352Z,24.06
2022-08-18T05:35:43.266Z,23.91
2022-08-18T05:38:29.564Z,23.64
2022-08-18T05:41:21.577Z,23.67
2022-08-18T05:43:57.279Z,23.70
2022-08-18T05:46:37.578Z,23.46
2022-08-18T05:49:04.914Z,23.68
2022-08-18T05:51:47.706Z,23.28
2022-08-18T05:54:38.658Z,23.12
2022-08-18T05:57:20.003Z,23.31
2022-08-18T05:59:52.460Z,23.10
2022-08-18T06:02:27.758Z,23.36
2022-08-18T06:05:11.851Z,23.96
2022-08-18T06:07:46.761Z,24.28
2022-08-18T06:10:14.753Z,24.35
2022-08-18T06:12:51.742Z,24.45
2022-08-18T06:15:33.847Z,24.79
2022-08-18T06:18:16.374Z,24.86
2022-08-18T06:21:04.835Z,24.92
2022-08-18T06:24:08.470Z,24.99
2022-08-18T06:26:56.131Z,25.47
2022-08-18T06:29:53.517Z,25.38
2022-08-18T06:32:29.310Z,25.19
2022-08-18T06:35:31.833Z,24.90
2022-08-18T06:38:38.510Z,25.15
2022-08-18T06:41:40.612Z,25.28
2022-08-18T06:44:21.398Z,25.21
2022-08-18T06:47:12.397Z,25.02
2022-08-18T06:50:18.305Z,25.25
2022-08-18T06:53:07.523Z,25.09
2022-08-18T06:55:54.588Z,24.77
2022-08-18T06:58:30.513Z,24.24
2022-08-18T07:01:02.443Z,24.08
2022-08-18T07:03:35.470Z,23.81
2022-08-18T07:06:05.074Z,23.88
2022-08-18T07:08:41.268Z,23.69
2022-08-18T07:11:33.126Z,23.62
2022-08-18T07:14:25.532Z,23.41
2022-08-18T07:17:08.661Z,23.49
2022-08-18T07:19:36.488Z,23.39
2022-08-18T07:22:07.748Z,23.67
2022-08-18T07:24:45.177Z,23.67
2022-08-18T07:27:15.931Z,23.57
2022-08-18T07:30:15.290Z,23.47
2022-08-18T07:32:57.498Z,23.72
2022-08-18T07:35:51.763Z,23.55
2022-08-18T07:38:43.054Z,23.15
2022-08-18T07:41:29.476Z,23.25
2022-08-18T07:44:53.431Z,23.25
2022-08-18T07:48:15.735Z,23.48
2022-08-18T07:50:58.506Z,23.45
2022-08-18T07:53:56.339Z,23.35
2022-08-18T07:56:37.876Z,23.20
2022-08-18T07:59:24.633Z,23.37
2022-08-18T08:02:22.224Z,23.46
2022-08-18T08:05:43.559Z,23.46
2022-08-18T08:08:32.681Z,23.46
2022-08-18T08:11:17.525Z,23.53
2022-08-18T08:14:15.030Z,23.97
2022-08-18T08:17:17.811Z,23.82
2022-08-18T08:20:02.732Z,24.08
2022-08-18T08:23:10.532Z,24.15
2022-08-18T08:26:35.490Z,23.64
2022-08-18T08:29:35.314Z,23.69
2022-08-18T08:32:14.712Z,23.46
2022-08-18T08:34:59.800Z,23.61
2022-08-18T08:37:49.820Z,23.72
2022-08-18T08:40:24.544Z,23.94
2022-08-18T08:43:01.147Z,23.73
2022-08-18T08:45:39.594Z,24.02
2022-08-18T08:48:28.412Z,24.20
2022-08-18T08:51:06.498Z,24.06
2022-08-18T08:53:51.216Z,24.30
2022-08-18T08:56:30.432Z,24.37
2022-08-18T08:59:16.571Z,24.56
2022-08-18T09:02:46.646Z,24.98
2022-08-18T09:05:40.072Z,24.99
2022-08-18T09:08:21.972Z,25.34
2022-08-18T09:11:18.014Z,25.55
2022-08-18T09:13:59.857Z,25.29
2022-08-18T09:17:16.976Z,25.49
2022-08-18T09:20:24.424Z,25.33
2022-08-18T09:23:05.097Z,25.23
2022-08-18T09:25:38.072Z,24.98
2022-08-18T09:28:18.948Z,25.32
2022-08-18T09:31:19.570Z,25.56
2022-08-18T09:34:09.745Z,25.70
2022-08-18T09:37:07.685Z,25.56
2022-08-18T09:40:11.025Z,25.85
2022-08-18T09:43:14.322Z,26.02
2022-08-18T09:45:47.108Z,26.37
2022-08-18T09:48:25.146Z,26.69
2022-08-18T09:51:34.649Z,26.55
2022-08-18T09:54:13.379Z,26.73
2022-08-18T09:56:55.613Z,27.16
2022-08-18T09:59:35.556Z,27.51
2022-08-18T10:02:20.040Z,27.36
2022-08-18T10:04:53.663Z,27.55
2022-08-18T10:07:43.680Z,28.02
2022-08-18T10:11:01.402Z,28.23
2022-08-18T10:13:38.766Z,28.47
2022-08-18T10:16:31.172Z,28.90
2022-08-18T10:19:08.006Z,29.02
2022-08-18T10:21:56.269Z,29.42
2022-08-18T10:27:45.638Z,28.54
2022-08-18T10:30:57.122Z,29.11
2022-08-18T10:33:58.328Z,28.75
2022-08-18T10:36:59.032Z,29.58
2022-08-18T10:39:41.683Z,30.56
2022-08-18T10:42:38.327Z,30.79
2022-08-18T10:45:36.519Z,31.25
2022-08-18T10:48:24.329Z,31.89
2022-08-18T10:51:11.510Z,32.04
2022-08-18T10:54:25.120Z,32.84
2022-08-18T10:57:12.640Z,32.87
2022-08-18T11:00:08.401Z,33.01
2022-08-18T11:03:13.882Z,32.74
2022-08-18T11:05:51.032Z,32.22
2022-08-18T11:08:21.971Z,31.97
2022-08-18T11:11:32.718Z,32.29
2022-08-18T11:14:07.273Z,32.40
2022-08-18T11:17:04.162Z,32.76
2022-08-18T11:19:43.355Z,32.81
2022-08-18T11:22:34.288Z,32.61
2022-08-18T11:25:19.833Z,32.85
2022-08-18T11:27:51.133Z,33.33
2022-08-18T11:30:36.960Z,33.81
2022-08-18T11:33:05.748Z,33.70
2022-08-18T11:35:46.615Z,33.59
2022-08-18T11:38:23.064Z,33.06
2022-08-18T11:41:13.106Z,33.20
2022-08-18T11:43:43.231Z,33.25
2022-08-18T11:46:38.965Z,32.89
2022-08-18T11:49:28.336Z,32.98
2022-08-18T11:52:19.838Z,33.46
2022-08-18T11:55:23.894Z,33.83
2022-08-18T11:57:58.970Z,33.99
2022-08-18T12:00:47.502Z,34.32
2022-08-18T12:03:41.706Z,34.36
2022-08-18T12:06:30.078Z,34.29
2022-08-18T12:12:26.210Z,34.29
2022-08-18T12:15:17.616Z,34.13
2022-08-18T12:17:52.935Z,34.70
2022-08-18T12:20:23.206Z,34.80
2022-08-18T12:22:57.872Z,34.67
2022-08-18T12:25:25.699Z,34.03
2022-08-18T12:27:54.418Z,34.13
2022-08-18T12:30:21.507Z,34.03
2022-08-18T12:32:50.612Z,33.99
2022-08-18T12:35:22.027Z,33.75
2022-08-18T12:38:12.972Z,34.04
2022-08-18T12:40:40.014Z,33.48
2022-08-18T12:43:07.068Z,33.53
2022-08-18T12:45:38.172Z,33.92
2022-08-18T12:48:09.307Z,33.71
2022-08-18T12:50:49.857Z,34.02
2022-08-18T12:53:29.104Z,33.92
2022-08-18T12:56:35.187Z,32.98
2022-08-18T12:59:09.134Z,33.60
2022-08-18T13:01:41.293Z,32.89
2022-08-18T13:04:13.202Z,33.12
2022-08-18T13:07:05.650Z,33.94
2022-08-18T13:09:53.044Z,34.32
2022-08-18T13:12:22.564Z,34.05
2022-08-18T13:14:53.710Z,34.21
2022-08-18T13:17:32.254Z,34.44
2022-08-18T13:20:10.841Z,34.65
2022-08-18T13:22:40.960Z,34.90
2022-08-18T13:25:32.415Z,34.81
2022-08-18T13:28:05.626Z,34.42
2022-08-18T13:30:33.183Z,34.38
2022-08-18T13:33:34.405Z,34.59
2022-08-18T13:35:54.553Z,34.89
2022-08-18T13:38:25.649Z,35.06
2022-08-18T13:40:57.741Z,34.96
2022-08-18T13:43:34.492Z,34.85
2022-08-18T13:46:05.514Z,34.66
2022-08-18T13:48:35.598Z,34.64
2022-08-18T13:51:09.206Z,34.69
2022-08-18T13:53:50.550Z,34.72
2022-08-18T13:56:20.697Z,34.74
2022-08-18T13:58:58.610Z,34.23
2022-08-18T14:01:51.638Z,34.09
2022-08-18T14:04:20.627Z,34.15
2022-08-18T14:06:57.519Z,34.39
2022-08-18T14:09:37.381Z,34.28
2022-08-18T14:12:15.712Z,34.75
2022-08-18T14:14:52.664Z,34.42
2022-08-18T14:17:22.569Z,33.99
2022-08-18T14:20:14.767Z,34.24
2022-08-18T14:23:00.821Z,34.37
2022-08-18T14:25:46.643Z,34.23
2022-08-18T14:28:14.085Z,34.67
2022-08-18T14:30:54.168Z,34.73
2022-08-18T14:33:34.201Z,34.65
2022-08-18T14:36:15.038Z,34.69
2022-08-18T14:38:42.760Z,34.67
2022-08-18T14:41:16.150Z,34.67
2022-08-18T14:44:04.114Z,34.41
2022-08-18T14:46:34.782Z,34.36
2022-08-18T14:49:03.885Z,34.06
2022-08-18T14:51:33.510Z,33.60
2022-08-18T14:54:01.821Z,33.80
2022-08-18T14:56:29.437Z,33.40
2022-08-18T14:59:00.175Z,33.71
2022-08-18T15:01:27.500Z,33.99
2022-08-18T15:03:55.003Z,34.23
2022-08-18T15:06:23.078Z,34.37
2022-08-18T15:08:57.086Z,34.79
2022-08-18T15:11:25.175Z,34.61
2022-08-18T15:13:55.116Z,34.76
2022-08-18T15:16:31.680Z,34.26
2022-08-18T15:19:03.380Z,33.72
2022-08-18T15:22:13.680Z,33.95
2022-08-18T15:25:06.402Z,34.14
2022-08-18T15:27:42.951Z,33.97
2022-08-18T15:30:19.682Z,33.39
2022-08-18T15:32:49.787Z,32.72
2022-08-18T15:35:21.548Z,33.06
2022-08-18T15:37:54.631Z,33.18
2022-08-18T15:40:30.854Z,33.20
2022-08-18T15:43:09.980Z,33.33
2022-08-18T15:45:56.048Z,33.42
2022-08-18T15:48:26.902Z,33.33
2022-08-18T15:50:56.885Z,33.14
2022-08-18T15:53:29.912Z,33.11
2022-08-18T15:55:57.546Z,32.88
2022-08-18T15:58:27.001Z,32.67
2022-08-18T16:00:58.911Z,32.95
2022-08-18T16:03:26.131Z,33.04
2022-08-18T16:05:58.028Z,33.08
2022-08-18T16:08:25.990Z,32.82
2022-08-18T16:10:56.736Z,32.78
2022-08-18T16:13:29.277Z,32.43
2022-08-18T16:15:58.711Z,32.60
2022-08-18T16:18:27.426Z,32.53
2022-08-18T16:20:56.620Z,32.30
2022-08-18T16:23:24.507Z,32.28
2022-08-18T16:25:51.436Z,32.38
2022-08-18T16:28:18.273Z,32.32
2022-08-18T16:30:47.282Z,32.23
2022-08-18T16:33:14.182Z,32.16
2022-08-18T16:35:45.305Z,31.98
2022-08-18T16:38:12.387Z,31.63
2022-08-18T16:40:42.013Z,31.32
2022-08-18T16:43:09.215Z,31.28
2022-08-18T16:45:42.513Z,31.09
2022-08-18T16:48:14.242Z,30.95
2022-08-18T16:50:49.390Z,30.84
2022-08-18T16:53:18.853Z,30.95
2022-08-18T16:55:49.703Z,30.58
2022-08-18T16:58:35.592Z,30.61
2022-08-18T17:01:20.840Z,30.77
2022-08-18T17:04:13.793Z,30.63
2022-08-18T17:06:48.003Z,30.45
2022-08-18T17:09:18.986Z,30.34
2022-08-18T17:11:51.941Z,30.28
2022-08-18T17:14:27.963Z,30.06
2022-08-18T17:16:56.736Z,30.20
2022-08-18T17:19:28.331Z,30.08
2022-08-18T17:21:57.856Z,29.89
2022-08-18T17:24:31.930Z,29.89
2022-08-18T17:27:26.595Z,29.83
2022-08-18T17:30:09.342Z,29.58
2022-08-18T17:32:42.093Z,29.36
2022-08-18T17:35:49.247Z,29.30
2022-08-18T17:38:45.925Z,29.12
2022-08-18T17:41:16.637Z,29.07
2022-08-18T17:46:23.652Z,28.83
2022-08-18T17:49:01.222Z,28.69
2022-08-18T17:51:55.113Z,28.73
2022-08-18T17:54:36.444Z,28.76
2022-08-18T17:57:16.958Z,28.75
2022-08-18T17:59:52.127Z,28.62
2022-08-18T18:02:30.153Z,28.56
2022-08-18T18:05:04.395Z,28.57
2022-08-18T18:07:52.581Z,28.70
2022-08-18T18:10:25.706Z,28.61
2022-08-18T18:13:13.307Z,28.58
2022-08-18T18:15:48.971Z,28.57
2022-08-18T18:18:25.618Z,28.32
2022-08-18T18:21:00.033Z,28.20
2022-08-18T18:23:41.103Z,28.08
2022-08-18T18:26:30.196Z,28.22
2022-08-18T18:29:21.555Z,28.01
2022-08-18T18:32:04.886Z,28.06
2022-08-18T18:34:40.667Z,28.04
2022-08-18T18:37:31.068Z,27.97
2022-08-18T18:40:10.648Z,27.99
2022-08-18T18:42:37.570Z,27.97
2022-08-18T18:45:22.694Z,27.91
2022-08-18T18:48:38.674Z,27.84
2022-08-18T18:51:10.536Z,27.66
2022-08-18T18:54:07.164Z,27.55
2022-08-18T18:56:44.530Z,27.56
2022-08-18T18:59:35.347Z,27.31
2022-08-18T19:02:54.329Z,27.22
2022-08-18T19:05:37.995Z,27.12
2022-08-18T19:08:43.534Z,27.14
2022-08-18T19:11:42.812Z,26.89
2022-08-18T19:14:21.332Z,27.01
2022-08-18T19:17:07.561Z,26.88
2022-08-18T19:19:52.394Z,26.68
2022-08-18T19:22:27.315Z,26.37
2022-08-18T19:25:14.482Z,26.46
2022-08-18T19:27:52.555Z,26.12
2022-08-18T19:30:24.671Z,26.34
2022-08-18T19:33:03.261Z,26.22
2022-08-18T19:35:59.388Z,26.02
2022-08-18T19:38:35.454Z,26.23
2022-08-18T19:41:19.761Z,26.10
2022-08-18T19:44:10.464Z,25.96
2022-08-18T19:46:53.128Z,25.72
2022-08-18T19:49:27.191Z,25.52
2022-08-18T19:52:06.995Z,25.36
2022-08-18T19:55:19.955Z,25.22
2022-08-18T19:58:02.970Z,25.22
2022-08-18T20:00:51.620Z,25.11
2022-08-18T20:04:03.999Z,25.28
2022-08-18T20:06:49.958Z,25.47
2022-08-18T20:09:39.286Z,25.38
2022-08-18T20:12:45.230Z,25.26
2022-08-18T20:15:23.548Z,25.23
2022-08-18T20:18:06.619Z,25.15
2022-08-18T20:20:43.234Z,25.03
2022-08-18T20:23:33.116Z,25.20
2022-08-18T20:25:59.999Z,25.27
2022-08-18T20:28:40.075Z,25.27
2022-08-18T20:31:16.009Z,25.26
2022-08-18T20:34:17.117Z,25.06
2022-08-18T20:36:47.092Z,25.21
2022-08-18T20:39:52.455Z,25.24
2022-08-18T20:42:22.425Z,25.07
2022-08-18T20:44:49.498Z,25.15
2022-08-18T20:47:30.625Z,24.93
2022-08-18T20:50:31.362Z,25.03
2022-08-18T20:53:21.786Z,24.88
2022-08-18T20:56:12.978Z,24.87
2022-08-18T20:59:12.043Z,24.92
2022-08-18T21:01:40.317Z,24.96
2022-08-18T21:04:07.977Z,24.93
2022-08-18T21:06:44.458Z,24.77
2022-08-18T21:09:17.706Z,24.68
2022-08-18T21:11:47.229Z,24.69
2022-08-18T21:14:29.848Z,24.69
2022-08-18T21:16:58.906Z,24.61
2022-08-18T21:19:32.616Z,24.51
2022-08-18T21:22:04.353Z,24.61
2022-08-18T21:24:39.415Z,24.61
2022-08-18T21:27:33.991Z,24.68
2022-08-18T21:30:12.375Z,24.55
2022-08-18T21:32:39.590Z,24.57
2022-08-18T21:35:31.773Z,24.62
2022-08-18T21:38:12.182Z,24.80
2022-08-18T21:40:49.239Z,24.76
2022-08-18T21:43:43.564Z,24.73
2022-08-18T21:46:26.279Z,24.66
2022-08-18T21:48:55.919Z,24.66
2022-08-18T21:51:46.444Z,24.64
2022-08-18T21:54:24.580Z,24.77
2022-08-18T21:57:27.390Z,24.58
2022-08-18T22:00:22.957Z,24.67
2022-08-18T22:02:54.516Z,24.74
2022-08-18T22:05:58.683Z,24.62
2022-08-18T22:08:24.931Z,24.57
2022-08-18T22:12:01.938Z,24.51
2022-08-18T22:14:54.755Z,24.54
2022-08-18T22:17:52.276Z,24.65
2022-08-18T22:20:46.461Z,24.58
2022-08-18T22:23:31.735Z,24.65
2022-08-18T22:26:16.243Z,24.43
2022-08-18T22:29:07.338Z,24.58
2022-08-18T22:31:43.422Z,24.78
2022-08-18T22:34:16.451Z,24.74
2022-08-18T22:36:56.105Z,24.48
2022-08-18T22:39:32.186Z,24.85
2022-08-18T22:42:02.148Z,24.63
2022-08-18T22:44:29.664Z,24.65
2022-08-18T22:46:56.774Z,24.72
2022-08-18T22:49:28.637Z,24.69
2022-08-18T22:51:56.345Z,24.69
2022-08-18T22:54:25.362Z,24.71
2022-08-18T22:56:56.569Z,24.60
2022-08-18T22:59:27.845Z,24.53
2022-08-18T23:01:58.045Z,24.70
2022-08-18T23:04:25.979Z,24.67
2022-08-18T23:06:57.556Z,24.60
2022-08-18T23:09:29.132Z,24.56
2022-08-18T23:12:04.502Z,24.40
2022-08-18T23:14:37.262Z,24.40
2022-08-18T23:17:05.851Z,24.62
2022-08-18T23:19:33.547Z,24.57
2022-08-18T23:22:02.789Z,24.67
2022-08-18T23:24:31.858Z,24.56
2022-08-18T23:26:59.806Z,24.50
2022-08-18T23:29:29.701Z,24.30
2022-08-18T23:31:56.653Z,24.36
2022-08-18T23:34:24.761Z,24.41
2022-08-18T23:37:01.258Z,24.40
2022-08-18T23:39:30.425Z,24.33
2022-08-18T23:42:03.312Z,24.31
2022-08-18T23:44:31.304Z,24.31
2022-08-18T23:47:00.417Z,24.08
2022-08-18T23:49:32.946Z,24.12
2022-08-18T23:52:00.617Z,24.03
2022-08-18T23:54:34.947Z,24.04
2022-08-18T23:57:05.017Z,24.03
2022-08-18T23:59:31.961Z,23.89
